Castlebar, Ireland
Current Conditions -  °F | °C
As of 6:00 PM on Thursday 27 Nov 2014 (Local Time) from EIKN Reporting Station
Scattered Clouds Scattered Clouds  
Wind Chill: 33°   Ceiling: Unl
Heat Index: 41°   Visibility: 6mi
Dew Point: 39°   Wind: 15mph
Humidity: 93%   Direction: 120°ESE
Pressure: 29.38"   Gusts: NA
Location:  53.86°N, 9.3°W
Report Text: EIKN 271700Z 12013KT 9999 SCT045 SCT240 05/04 Q0995 NOSIG
Loading
Personal Weather Stations






























Interactive Weather Map New forecast layout! Learn more

10-Day Weather Forecast

Advertisements
Track Severe Weather on mobile